sensor_id;sensor_type;location;lat;lon;timestamp;P1;durP1;ratioP1;P2;durP2;ratioP2
37777;SDS011;23615;51.506;7.678;2023-04-08T00:01:50;2.40;;;2.30;;
37777;SDS011;23615;51.506;7.678;2023-04-08T00:04:16;3.30;;;3.10;;
37777;SDS011;23615;51.506;7.678;2023-04-08T00:06:41;3.40;;;3.20;;
37777;SDS011;23615;51.506;7.678;2023-04-08T00:09:06;3.10;;;2.90;;
37777;SDS011;23615;51.506;7.678;2023-04-08T00:11:32;3.17;;;2.97;;
37777;SDS011;23615;51.506;7.678;2023-04-08T00:13:57;3.60;;;3.40;;
37777;SDS011;23615;51.506;7.678;2023-04-08T00:16:24;3.38;;;3.17;;
37777;SDS011;23615;51.506;7.678;2023-04-08T00:18:49;3.20;;;3.00;;
37777;SDS011;23615;51.506;7.678;2023-04-08T00:21:15;3.40;;;3.20;;
37777;SDS011;23615;51.506;7.678;2023-04-08T00:23:42;3.47;;;3.28;;
37777;SDS011;23615;51.506;7.678;2023-04-08T00:26:07;3.72;;;3.50;;
37777;SDS011;23615;51.506;7.678;2023-04-08T00:28:33;3.57;;;3.37;;
37777;SDS011;23615;51.506;7.678;2023-04-08T00:30:58;3.35;;;3.17;;
37777;SDS011;23615;51.506;7.678;2023-04-08T00:33:23;3.30;;;3.10;;
37777;SDS011;23615;51.506;7.678;2023-04-08T00:35:49;3.55;;;3.35;;
37777;SDS011;23615;51.506;7.678;2023-04-08T00:38:15;3.13;;;2.92;;
37777;SDS011;23615;51.506;7.678;2023-04-08T00:40:40;2.97;;;2.80;;
37777;SDS011;23615;51.506;7.678;2023-04-08T00:43:06;3.30;;;3.10;;
37777;SDS011;23615;51.506;7.678;2023-04-08T00:45:32;3.20;;;3.00;;
37777;SDS011;23615;51.506;7.678;2023-04-08T00:47:58;3.10;;;2.90;;
37777;SDS011;23615;51.506;7.678;2023-04-08T00:50:23;3.63;;;3.43;;
37777;SDS011;23615;51.506;7.678;2023-04-08T00:52:48;3.53;;;3.33;;
37777;SDS011;23615;51.506;7.678;2023-04-08T00:55:14;3.67;;;3.47;;
37777;SDS011;23615;51.506;7.678;2023-04-08T00:57:39;3.27;;;3.10;;
37777;SDS011;23615;51.506;7.678;2023-04-08T01:00:05;3.88;;;3.67;;
37777;SDS011;23615;51.506;7.678;2023-04-08T01:02:35;4.18;;;3.88;;
37777;SDS011;23615;51.506;7.678;2023-04-08T01:05:04;4.13;;;3.88;;
37777;SDS011;23615;51.506;7.678;2023-04-08T01:10:02;5.07;;;4.68;;
37777;SDS011;23615;51.506;7.678;2023-04-08T01:12:32;4.50;;;4.20;;
37777;SDS011;23615;51.506;7.678;2023-04-08T01:15:05;5.38;;;5.00;;
37777;SDS011;23615;51.506;7.678;2023-04-08T01:17:32;4.93;;;4.63;;
37777;SDS011;23615;51.506;7.678;2023-04-08T01:20:00;4.47;;;4.18;;
37777;SDS011;23615;51.506;7.678;2023-04-08T01:22:38;4.53;;;4.22;;
37777;SDS011;23615;51.506;7.678;2023-04-08T01:25:15;5.63;;;5.23;;
37777;SDS011;23615;51.506;7.678;2023-04-08T01:27:43;5.35;;;4.95;;
37777;SDS011;23615;51.506;7.678;2023-04-08T01:30:12;4.90;;;4.60;;
37777;SDS011;23615;51.506;7.678;2023-04-08T01:32:38;4.50;;;4.20;;
37777;SDS011;23615;51.506;7.678;2023-04-08T01:35:05;4.72;;;4.43;;
37777;SDS011;23615;51.506;7.678;2023-04-08T01:37:31;5.22;;;4.82;;
37777;SDS011;23615;51.506;7.678;2023-04-08T01:39:57;6.78;;;6.28;;
37777;SDS011;23615;51.506;7.678;2023-04-08T01:42:25;6.22;;;5.72;;
37777;SDS011;23615;51.506;7.678;2023-04-08T01:44:54;5.35;;;4.95;;
37777;SDS011;23615;51.506;7.678;2023-04-08T01:47:21;5.45;;;5.05;;
37777;SDS011;23615;51.506;7.678;2023-04-08T01:49:49;6.78;;;6.18;;
37777;SDS011;23615;51.506;7.678;2023-04-08T01:52:15;7.15;;;6.63;;
37777;SDS011;23615;51.506;7.678;2023-04-08T01:54:43;7.17;;;6.57;;
37777;SDS011;23615;51.506;7.678;2023-04-08T01:57:10;8.10;;;7.43;;
37777;SDS011;23615;51.506;7.678;2023-04-08T01:59:38;8.13;;;7.43;;
37777;SDS011;23615;51.506;7.678;2023-04-08T02:02:04;7.88;;;7.20;;
37777;SDS011;23615;51.506;7.678;2023-04-08T02:04:34;8.13;;;7.43;;
37777;SDS011;23615;51.506;7.678;2023-04-08T02:07:00;9.40;;;8.50;;
37777;SDS011;23615;51.506;7.678;2023-04-08T02:09:26;9.95;;;9.05;;
37777;SDS011;23615;51.506;7.678;2023-04-08T02:11:52;9.07;;;8.27;;
37777;SDS011;23615;51.506;7.678;2023-04-08T02:14:17;8.50;;;7.70;;
37777;SDS011;23615;51.506;7.678;2023-04-08T02:16:45;9.80;;;8.90;;
37777;SDS011;23615;51.506;7.678;2023-04-08T02:19:30;9.40;;;8.60;;
37777;SDS011;23615;51.506;7.678;2023-04-08T02:22:11;10.23;;;9.33;;
37777;SDS011;23615;51.506;7.678;2023-04-08T02:24:43;11.05;;;10.05;;
37777;SDS011;23615;51.506;7.678;2023-04-08T02:27:10;11.63;;;10.43;;
37777;SDS011;23615;51.506;7.678;2023-04-08T02:29:37;12.48;;;11.18;;
37777;SDS011;23615;51.506;7.678;2023-04-08T02:32:04;10.75;;;9.75;;
37777;SDS011;23615;51.506;7.678;2023-04-08T02:34:30;11.80;;;10.63;;
37777;SDS011;23615;51.506;7.678;2023-04-08T02:36:56;11.60;;;10.50;;
37777;SDS011;23615;51.506;7.678;2023-04-08T02:39:29;12.70;;;11.50;;
37777;SDS011;23615;51.506;7.678;2023-04-08T02:41:55;11.90;;;10.70;;
37777;SDS011;23615;51.506;7.678;2023-04-08T02:44:21;14.33;;;12.83;;
37777;SDS011;23615;51.506;7.678;2023-04-08T02:46:46;12.80;;;11.50;;
37777;SDS011;23615;51.506;7.678;2023-04-08T02:49:11;12.95;;;11.75;;
37777;SDS011;23615;51.506;7.678;2023-04-08T02:51:36;13.50;;;12.20;;
37777;SDS011;23615;51.506;7.678;2023-04-08T02:54:02;13.70;;;12.30;;
37777;SDS011;23615;51.506;7.678;2023-04-08T02:56:27;11.43;;;10.33;;
37777;SDS011;23615;51.506;7.678;2023-04-08T02:58:52;12.10;;;10.90;;
37777;SDS011;23615;51.506;7.678;2023-04-08T03:01:17;12.57;;;11.27;;
37777;SDS011;23615;51.506;7.678;2023-04-08T03:03:43;11.77;;;10.67;;
37777;SDS011;23615;51.506;7.678;2023-04-08T03:06:08;10.90;;;9.90;;
37777;SDS011;23615;51.506;7.678;2023-04-08T03:08:33;11.50;;;10.37;;
37777;SDS011;23615;51.506;7.678;2023-04-08T03:10:58;11.67;;;10.57;;
37777;SDS011;23615;51.506;7.678;2023-04-08T03:13:24;11.90;;;10.83;;
37777;SDS011;23615;51.506;7.678;2023-04-08T03:15:49;11.13;;;10.03;;
37777;SDS011;23615;51.506;7.678;2023-04-08T03:18:14;10.33;;;9.33;;
37777;SDS011;23615;51.506;7.678;2023-04-08T03:20:40;12.03;;;10.90;;
37777;SDS011;23615;51.506;7.678;2023-04-08T03:23:05;11.50;;;10.40;;
37777;SDS011;23615;51.506;7.678;2023-04-08T03:25:31;10.53;;;9.53;;
37777;SDS011;23615;51.506;7.678;2023-04-08T03:27:57;12.23;;;11.07;;
37777;SDS011;23615;51.506;7.678;2023-04-08T03:30:22;11.27;;;10.27;;
37777;SDS011;23615;51.506;7.678;2023-04-08T03:32:47;12.20;;;11.00;;
37777;SDS011;23615;51.506;7.678;2023-04-08T03:35:13;12.83;;;11.63;;
37777;SDS011;23615;51.506;7.678;2023-04-08T03:37:38;12.60;;;11.40;;
37777;SDS011;23615;51.506;7.678;2023-04-08T03:40:03;14.00;;;12.60;;
37777;SDS011;23615;51.506;7.678;2023-04-08T03:42:29;14.10;;;12.70;;
37777;SDS011;23615;51.506;7.678;2023-04-08T03:44:55;15.47;;;13.83;;
37777;SDS011;23615;51.506;7.678;2023-04-08T03:47:20;13.70;;;12.30;;
37777;SDS011;23615;51.506;7.678;2023-04-08T03:49:45;14.90;;;12.87;;
37777;SDS011;23615;51.506;7.678;2023-04-08T03:52:10;13.10;;;11.80;;
37777;SDS011;23615;51.506;7.678;2023-04-08T03:54:36;12.83;;;11.53;;
37777;SDS011;23615;51.506;7.678;2023-04-08T03:57:01;11.93;;;10.73;;
37777;SDS011;23615;51.506;7.678;2023-04-08T03:59:26;12.90;;;11.60;;
37777;SDS011;23615;51.506;7.678;2023-04-08T04:01:52;13.80;;;12.40;;
37777;SDS011;23615;51.506;7.678;2023-04-08T04:04:17;14.50;;;12.18;;
37777;SDS011;23615;51.506;7.678;2023-04-08T04:06:43;14.77;;;13.33;;
37777;SDS011;23615;51.506;7.678;2023-04-08T04:09:08;14.03;;;12.63;;
37777;SDS011;23615;51.506;7.678;2023-04-08T04:11:33;20.33;;;14.13;;
37777;SDS011;23615;51.506;7.678;2023-04-08T04:13:59;12.98;;;11.68;;
37777;SDS011;23615;51.506;7.678;2023-04-08T04:16:25;13.60;;;12.20;;
37777;SDS011;23615;51.506;7.678;2023-04-08T04:18:51;12.73;;;11.43;;
37777;SDS011;23615;51.506;7.678;2023-04-08T04:21:17;12.85;;;11.55;;
37777;SDS011;23615;51.506;7.678;2023-04-08T04:23:42;13.20;;;11.90;;
37777;SDS011;23615;51.506;7.678;2023-04-08T04:26:08;12.60;;;11.30;;
37777;SDS011;23615;51.506;7.678;2023-04-08T04:28:34;13.25;;;11.98;;
37777;SDS011;23615;51.506;7.678;2023-04-08T04:30:59;13.17;;;11.77;;
37777;SDS011;23615;51.506;7.678;2023-04-08T04:33:25;13.70;;;12.30;;
37777;SDS011;23615;51.506;7.678;2023-04-08T04:35:51;13.57;;;12.18;;
37777;SDS011;23615;51.506;7.678;2023-04-08T04:38:16;14.33;;;12.80;;
37777;SDS011;23615;51.506;7.678;2023-04-08T04:40:42;13.30;;;11.90;;
37777;SDS011;23615;51.506;7.678;2023-04-08T04:43:08;14.10;;;12.60;;
37777;SDS011;23615;51.506;7.678;2023-04-08T04:45:33;13.30;;;12.00;;
37777;SDS011;23615;51.506;7.678;2023-04-08T04:47:58;14.40;;;12.90;;
37777;SDS011;23615;51.506;7.678;2023-04-08T04:50:24;16.73;;;14.00;;
37777;SDS011;23615;51.506;7.678;2023-04-08T04:52:49;13.80;;;12.47;;
37777;SDS011;23615;51.506;7.678;2023-04-08T04:55:14;14.77;;;13.27;;
37777;SDS011;23615;51.506;7.678;2023-04-08T04:57:40;13.37;;;12.07;;
37777;SDS011;23615;51.506;7.678;2023-04-08T05:00:06;12.33;;;11.13;;
37777;SDS011;23615;51.506;7.678;2023-04-08T05:02:32;13.95;;;12.55;;
37777;SDS011;23615;51.506;7.678;2023-04-08T05:04:57;13.30;;;12.00;;
37777;SDS011;23615;51.506;7.678;2023-04-08T05:07:23;13.83;;;12.53;;
37777;SDS011;23615;51.506;7.678;2023-04-08T05:09:48;13.38;;;12.00;;
37777;SDS011;23615;51.506;7.678;2023-04-08T05:12:13;13.63;;;12.23;;
37777;SDS011;23615;51.506;7.678;2023-04-08T05:14:39;12.60;;;11.30;;
37777;SDS011;23615;51.506;7.678;2023-04-08T05:17:06;12.82;;;11.30;;
37777;SDS011;23615;51.506;7.678;2023-04-08T05:19:31;11.57;;;10.37;;
37777;SDS011;23615;51.506;7.678;2023-04-08T05:21:56;12.03;;;10.83;;
37777;SDS011;23615;51.506;7.678;2023-04-08T05:24:22;11.10;;;10.00;;
37777;SDS011;23615;51.506;7.678;2023-04-08T05:26:47;10.57;;;9.30;;
37777;SDS011;23615;51.506;7.678;2023-04-08T05:29:16;15.23;;;13.63;;
37777;SDS011;23615;51.506;7.678;2023-04-08T05:31:42;14.57;;;13.07;;
37777;SDS011;23615;51.506;7.678;2023-04-08T05:34:07;15.07;;;13.47;;
37777;SDS011;23615;51.506;7.678;2023-04-08T05:36:32;15.93;;;14.23;;
37777;SDS011;23615;51.506;7.678;2023-04-08T05:38:58;18.33;;;14.57;;
37777;SDS011;23615;51.506;7.678;2023-04-08T05:41:23;15.27;;;13.67;;
37777;SDS011;23615;51.506;7.678;2023-04-08T05:43:48;15.60;;;13.63;;
37777;SDS011;23615;51.506;7.678;2023-04-08T05:46:13;16.10;;;14.40;;
37777;SDS011;23615;51.506;7.678;2023-04-08T05:48:39;15.40;;;13.80;;
37777;SDS011;23615;51.506;7.678;2023-04-08T05:51:04;15.47;;;13.37;;
37777;SDS011;23615;51.506;7.678;2023-04-08T05:53:29;15.23;;;13.63;;
37777;SDS011;23615;51.506;7.678;2023-04-08T05:55:55;12.68;;;11.45;;
37777;SDS011;23615;51.506;7.678;2023-04-08T05:58:20;12.90;;;11.70;;
37777;SDS011;23615;51.506;7.678;2023-04-08T06:00:45;13.13;;;11.83;;
37777;SDS011;23615;51.506;7.678;2023-04-08T06:03:11;12.70;;;11.40;;
37777;SDS011;23615;51.506;7.678;2023-04-08T06:05:36;12.10;;;10.90;;
37777;SDS011;23615;51.506;7.678;2023-04-08T06:08:01;14.53;;;11.67;;
37777;SDS011;23615;51.506;7.678;2023-04-08T06:10:27;14.27;;;11.77;;
37777;SDS011;23615;51.506;7.678;2023-04-08T06:12:52;12.03;;;10.83;;
37777;SDS011;23615;51.506;7.678;2023-04-08T06:15:17;12.87;;;11.57;;
37777;SDS011;23615;51.506;7.678;2023-04-08T06:17:42;12.27;;;10.87;;
37777;SDS011;23615;51.506;7.678;2023-04-08T06:20:08;13.23;;;11.50;;
37777;SDS011;23615;51.506;7.678;2023-04-08T06:22:36;12.13;;;10.82;;
37777;SDS011;23615;51.506;7.678;2023-04-08T06:25:01;14.90;;;13.03;;
37777;SDS011;23615;51.506;7.678;2023-04-08T06:27:27;15.25;;;13.68;;
37777;SDS011;23615;51.506;7.678;2023-04-08T06:29:52;15.95;;;14.25;;
37777;SDS011;23615;51.506;7.678;2023-04-08T06:32:19;18.02;;;15.55;;
37777;SDS011;23615;51.506;7.678;2023-04-08T06:34:44;15.80;;;14.13;;
37777;SDS011;23615;51.506;7.678;2023-04-08T06:37:10;15.60;;;14.10;;
37777;SDS011;23615;51.506;7.678;2023-04-08T06:39:35;14.40;;;13.00;;
37777;SDS011;23615;51.506;7.678;2023-04-08T06:42:00;15.37;;;13.77;;
37777;SDS011;23615;51.506;7.678;2023-04-08T06:44:26;12.43;;;11.13;;
37777;SDS011;23615;51.506;7.678;2023-04-08T06:46:51;13.90;;;12.40;;
37777;SDS011;23615;51.506;7.678;2023-04-08T06:49:17;11.67;;;10.50;;
37777;SDS011;23615;51.506;7.678;2023-04-08T06:51:42;11.73;;;10.53;;
37777;SDS011;23615;51.506;7.678;2023-04-08T06:54:07;11.50;;;10.30;;
37777;SDS011;23615;51.506;7.678;2023-04-08T06:56:34;11.30;;;10.15;;
37777;SDS011;23615;51.506;7.678;2023-04-08T06:58:59;11.40;;;10.23;;
37777;SDS011;23615;51.506;7.678;2023-04-08T07:01:25;13.02;;;11.63;;
37777;SDS011;23615;51.506;7.678;2023-04-08T07:03:50;12.93;;;11.57;;
37777;SDS011;23615;51.506;7.678;2023-04-08T07:06:16;12.13;;;10.82;;
37777;SDS011;23615;51.506;7.678;2023-04-08T07:08:41;9.33;;;8.43;;
37777;SDS011;23615;51.506;7.678;2023-04-08T07:11:06;10.47;;;9.47;;
37777;SDS011;23615;51.506;7.678;2023-04-08T07:13:32;13.20;;;11.02;;
37777;SDS011;23615;51.506;7.678;2023-04-08T07:15:57;12.77;;;11.48;;
37777;SDS011;23615;51.506;7.678;2023-04-08T07:18:22;10.97;;;9.83;;
37777;SDS011;23615;51.506;7.678;2023-04-08T07:20:51;11.97;;;10.63;;
37777;SDS011;23615;51.506;7.678;2023-04-08T07:23:21;10.30;;;9.30;;
37777;SDS011;23615;51.506;7.678;2023-04-08T07:25:47;11.00;;;9.90;;
37777;SDS011;23615;51.506;7.678;2023-04-08T07:28:12;13.27;;;11.63;;
37777;SDS011;23615;51.506;7.678;2023-04-08T07:30:38;11.77;;;10.67;;
37777;SDS011;23615;51.506;7.678;2023-04-08T07:33:03;12.57;;;11.40;;
37777;SDS011;23615;51.506;7.678;2023-04-08T07:35:28;11.07;;;9.97;;
37777;SDS011;23615;51.506;7.678;2023-04-08T07:37:55;11.45;;;10.35;;
37777;SDS011;23615;51.506;7.678;2023-04-08T07:40:21;11.03;;;10.03;;
37777;SDS011;23615;51.506;7.678;2023-04-08T07:42:47;10.63;;;9.63;;
37777;SDS011;23615;51.506;7.678;2023-04-08T07:45:13;12.07;;;10.98;;
37777;SDS011;23615;51.506;7.678;2023-04-08T07:47:38;10.83;;;9.80;;
37777;SDS011;23615;51.506;7.678;2023-04-08T07:50:04;11.20;;;10.20;;
37777;SDS011;23615;51.506;7.678;2023-04-08T07:52:29;10.30;;;9.40;;
37777;SDS011;23615;51.506;7.678;2023-04-08T07:54:55;10.10;;;9.20;;
37777;SDS011;23615;51.506;7.678;2023-04-08T07:57:20;10.57;;;9.40;;
37777;SDS011;23615;51.506;7.678;2023-04-08T07:59:46;11.97;;;10.87;;
37777;SDS011;23615;51.506;7.678;2023-04-08T08:02:11;10.87;;;9.77;;
37777;SDS011;23615;51.506;7.678;2023-04-08T08:04:36;9.37;;;8.47;;
37777;SDS011;23615;51.506;7.678;2023-04-08T08:07:01;10.97;;;9.97;;
37777;SDS011;23615;51.506;7.678;2023-04-08T08:09:27;10.02;;;9.13;;
37777;SDS011;23615;51.506;7.678;2023-04-08T08:11:52;9.67;;;8.77;;
37777;SDS011;23615;51.506;7.678;2023-04-08T08:14:17;9.50;;;8.60;;
37777;SDS011;23615;51.506;7.678;2023-04-08T08:16:43;9.93;;;9.00;;
37777;SDS011;23615;51.506;7.678;2023-04-08T08:19:08;8.38;;;7.57;;
37777;SDS011;23615;51.506;7.678;2023-04-08T08:21:37;10.40;;;9.48;;
37777;SDS011;23615;51.506;7.678;2023-04-08T08:24:03;9.73;;;8.82;;
37777;SDS011;23615;51.506;7.678;2023-04-08T08:26:28;10.63;;;9.63;;
37777;SDS011;23615;51.506;7.678;2023-04-08T08:28:54;11.23;;;10.13;;
37777;SDS011;23615;51.506;7.678;2023-04-08T08:31:19;10.60;;;9.52;;
37777;SDS011;23615;51.506;7.678;2023-04-08T08:33:44;10.90;;;9.80;;
37777;SDS011;23615;51.506;7.678;2023-04-08T08:36:11;9.35;;;8.55;;
37777;SDS011;23615;51.506;7.678;2023-04-08T08:38:37;8.13;;;7.43;;
37777;SDS011;23615;51.506;7.678;2023-04-08T08:41:02;11.10;;;10.00;;
37777;SDS011;23615;51.506;7.678;2023-04-08T08:43:28;10.57;;;9.57;;
37777;SDS011;23615;51.506;7.678;2023-04-08T08:45:57;12.82;;;11.52;;
37777;SDS011;23615;51.506;7.678;2023-04-08T08:48:23;12.93;;;11.73;;
37777;SDS011;23615;51.506;7.678;2023-04-08T08:50:48;14.40;;;13.10;;
37777;SDS011;23615;51.506;7.678;2023-04-08T08:53:14;12.65;;;11.35;;
37777;SDS011;23615;51.506;7.678;2023-04-08T08:55:40;11.93;;;10.83;;
37777;SDS011;23615;51.506;7.678;2023-04-08T08:58:05;11.97;;;10.77;;
37777;SDS011;23615;51.506;7.678;2023-04-08T09:00:35;11.65;;;10.55;;
37777;SDS011;23615;51.506;7.678;2023-04-08T09:03:14;12.52;;;11.32;;
37777;SDS011;23615;51.506;7.678;2023-04-08T09:05:47;9.90;;;9.00;;
37777;SDS011;23615;51.506;7.678;2023-04-08T09:08:22;10.48;;;9.57;;
37777;SDS011;23615;51.506;7.678;2023-04-08T09:10:51;9.20;;;8.20;;
37777;SDS011;23615;51.506;7.678;2023-04-08T09:13:17;8.38;;;7.57;;
37777;SDS011;23615;51.506;7.678;2023-04-08T09:18:27;7.70;;;6.82;;
37777;SDS011;23615;51.506;7.678;2023-04-08T09:20:52;8.87;;;8.07;;
37777;SDS011;23615;51.506;7.678;2023-04-08T09:23:18;7.37;;;6.67;;
37777;SDS011;23615;51.506;7.678;2023-04-08T09:25:43;8.23;;;7.43;;
37777;SDS011;23615;51.506;7.678;2023-04-08T09:28:18;7.33;;;6.60;;
37777;SDS011;23615;51.506;7.678;2023-04-08T09:30:45;8.30;;;7.50;;
37777;SDS011;23615;51.506;7.678;2023-04-08T09:33:10;7.40;;;6.70;;
37777;SDS011;23615;51.506;7.678;2023-04-08T09:35:36;6.93;;;6.33;;
37777;SDS011;23615;51.506;7.678;2023-04-08T09:38:01;7.50;;;6.70;;
37777;SDS011;23615;51.506;7.678;2023-04-08T09:40:26;7.30;;;6.60;;
37777;SDS011;23615;51.506;7.678;2023-04-08T09:42:55;6.27;;;5.67;;
37777;SDS011;23615;51.506;7.678;2023-04-08T09:45:24;7.90;;;7.03;;
37777;SDS011;23615;51.506;7.678;2023-04-08T09:47:55;7.10;;;6.40;;
37777;SDS011;23615;51.506;7.678;2023-04-08T09:50:31;6.30;;;5.70;;
37777;SDS011;23615;51.506;7.678;2023-04-08T09:53:08;7.13;;;6.43;;
37777;SDS011;23615;51.506;7.678;2023-04-08T09:55:55;7.87;;;7.17;;
37777;SDS011;23615;51.506;7.678;2023-04-08T09:58:27;7.07;;;6.45;;
37777;SDS011;23615;51.506;7.678;2023-04-08T10:00:53;9.07;;;7.10;;
37777;SDS011;23615;51.506;7.678;2023-04-08T10:03:29;7.07;;;6.45;;
37777;SDS011;23615;51.506;7.678;2023-04-08T10:05:57;6.63;;;6.05;;
37777;SDS011;23615;51.506;7.678;2023-04-08T10:08:25;7.65;;;6.95;;
37777;SDS011;23615;51.506;7.678;2023-04-08T10:10:51;6.63;;;6.00;;
37777;SDS011;23615;51.506;7.678;2023-04-08T10:13:18;9.15;;;7.18;;
37777;SDS011;23615;51.506;7.678;2023-04-08T10:15:43;9.32;;;8.43;;
37777;SDS011;23615;51.506;7.678;2023-04-08T10:23:03;8.50;;;7.70;;
37777;SDS011;23615;51.506;7.678;2023-04-08T10:25:34;7.43;;;6.72;;
37777;SDS011;23615;51.506;7.678;2023-04-08T10:28:01;8.20;;;7.40;;
37777;SDS011;23615;51.506;7.678;2023-04-08T10:30:47;8.05;;;7.25;;
37777;SDS011;23615;51.506;7.678;2023-04-08T10:35:42;7.60;;;6.90;;
37777;SDS011;23615;51.506;7.678;2023-04-08T10:38:12;9.05;;;8.25;;
37777;SDS011;23615;51.506;7.678;2023-04-08T10:40:38;10.40;;;9.30;;
37777;SDS011;23615;51.506;7.678;2023-04-08T10:43:05;10.65;;;9.65;;
37777;SDS011;23615;51.506;7.678;2023-04-08T10:45:31;11.25;;;9.43;;
37777;SDS011;23615;51.506;7.678;2023-04-08T10:48:17;10.95;;;9.88;;
37777;SDS011;23615;51.506;7.678;2023-04-08T10:50:54;14.55;;;13.00;;
37777;SDS011;23615;51.506;7.678;2023-04-08T10:56:06;12.82;;;11.52;;
37777;SDS011;23615;51.506;7.678;2023-04-08T10:58:54;12.93;;;11.57;;
37777;SDS011;23615;51.506;7.678;2023-04-08T11:01:20;11.80;;;10.60;;
37777;SDS011;23615;51.506;7.678;2023-04-08T11:03:46;13.50;;;12.10;;
37777;SDS011;23615;51.506;7.678;2023-04-08T11:06:12;12.52;;;11.23;;
37777;SDS011;23615;51.506;7.678;2023-04-08T11:08:38;13.27;;;11.68;;
37777;SDS011;23615;51.506;7.678;2023-04-08T11:11:04;14.17;;;12.77;;
37777;SDS011;23615;51.506;7.678;2023-04-08T11:13:34;13.38;;;11.98;;
37777;SDS011;23615;51.506;7.678;2023-04-08T11:16:02;12.98;;;11.73;;
37777;SDS011;23615;51.506;7.678;2023-04-08T11:18:29;13.05;;;11.75;;
37777;SDS011;23615;51.506;7.678;2023-04-08T11:20:55;12.90;;;11.60;;
37777;SDS011;23615;51.506;7.678;2023-04-08T11:23:23;12.85;;;11.55;;
37777;SDS011;23615;51.506;7.678;2023-04-08T11:25:49;14.85;;;13.27;;
37777;SDS011;23615;51.506;7.678;2023-04-08T11:28:16;15.07;;;13.57;;
37777;SDS011;23615;51.506;7.678;2023-04-08T11:30:42;14.30;;;12.90;;
37777;SDS011;23615;51.506;7.678;2023-04-08T11:33:08;12.93;;;11.45;;
37777;SDS011;23615;51.506;7.678;2023-04-08T11:35:33;14.25;;;12.85;;
37777;SDS011;23615;51.506;7.678;2023-04-08T11:37:59;14.02;;;12.63;;
37777;SDS011;23615;51.506;7.678;2023-04-08T11:40:28;13.02;;;11.68;;
37777;SDS011;23615;51.506;7.678;2023-04-08T11:42:53;14.27;;;12.88;;
37777;SDS011;23615;51.506;7.678;2023-04-08T11:45:19;13.30;;;12.00;;
37777;SDS011;23615;51.506;7.678;2023-04-08T11:47:45;12.23;;;11.02;;
37777;SDS011;23615;51.506;7.678;2023-04-08T11:50:12;11.98;;;10.85;;
37777;SDS011;23615;51.506;7.678;2023-04-08T11:52:48;12.37;;;11.07;;
37777;SDS011;23615;51.506;7.678;2023-04-08T11:55:21;13.10;;;11.70;;
37777;SDS011;23615;51.506;7.678;2023-04-08T11:57:48;11.07;;;10.00;;
37777;SDS011;23615;51.506;7.678;2023-04-08T12:00:15;11.25;;;10.15;;
37777;SDS011;23615;51.506;7.678;2023-04-08T12:02:40;9.77;;;8.87;;
37777;SDS011;23615;51.506;7.678;2023-04-08T12:05:05;10.80;;;9.73;;
37777;SDS011;23615;51.506;7.678;2023-04-08T12:07:31;11.18;;;10.07;;
37777;SDS011;23615;51.506;7.678;2023-04-08T12:09:57;11.50;;;10.40;;
37777;SDS011;23615;51.506;7.678;2023-04-08T12:12:22;11.97;;;10.70;;
37777;SDS011;23615;51.506;7.678;2023-04-08T12:14:48;12.03;;;10.83;;
37777;SDS011;23615;51.506;7.678;2023-04-08T12:17:13;11.38;;;10.18;;
37777;SDS011;23615;51.506;7.678;2023-04-08T12:19:39;11.73;;;10.52;;
37777;SDS011;23615;51.506;7.678;2023-04-08T12:22:04;11.23;;;10.13;;
37777;SDS011;23615;51.506;7.678;2023-04-08T12:24:30;13.38;;;12.07;;
37777;SDS011;23615;51.506;7.678;2023-04-08T12:26:55;13.17;;;11.87;;
37777;SDS011;23615;51.506;7.678;2023-04-08T12:29:20;12.87;;;11.67;;
37777;SDS011;23615;51.506;7.678;2023-04-08T12:31:45;13.50;;;12.20;;
37777;SDS011;23615;51.506;7.678;2023-04-08T12:34:11;13.23;;;11.83;;
37777;SDS011;23615;51.506;7.678;2023-04-08T12:36:36;11.60;;;10.40;;
37777;SDS011;23615;51.506;7.678;2023-04-08T12:39:02;10.90;;;9.82;;
37777;SDS011;23615;51.506;7.678;2023-04-08T12:41:27;11.37;;;10.27;;
37777;SDS011;23615;51.506;7.678;2023-04-08T12:43:53;10.53;;;9.53;;
37777;SDS011;23615;51.506;7.678;2023-04-08T12:46:18;12.23;;;11.03;;
37777;SDS011;23615;51.506;7.678;2023-04-08T12:48:43;12.20;;;11.00;;
37777;SDS011;23615;51.506;7.678;2023-04-08T12:51:09;9.60;;;8.60;;
37777;SDS011;23615;51.506;7.678;2023-04-08T12:53:34;9.53;;;8.63;;
37777;SDS011;23615;51.506;7.678;2023-04-08T12:56:00;9.40;;;8.50;;
37777;SDS011;23615;51.506;7.678;2023-04-08T12:58:26;11.05;;;9.95;;
37777;SDS011;23615;51.506;7.678;2023-04-08T13:00:51;9.90;;;8.90;;
37777;SDS011;23615;51.506;7.678;2023-04-08T13:03:16;10.87;;;9.87;;
37777;SDS011;23615;51.506;7.678;2023-04-08T13:05:42;9.57;;;8.63;;
37777;SDS011;23615;51.506;7.678;2023-04-08T13:08:08;8.95;;;8.05;;
37777;SDS011;23615;51.506;7.678;2023-04-08T13:10:34;9.23;;;8.32;;
37777;SDS011;23615;51.506;7.678;2023-04-08T13:13:00;8.70;;;7.87;;
37777;SDS011;23615;51.506;7.678;2023-04-08T13:15:25;8.48;;;7.68;;
37777;SDS011;23615;51.506;7.678;2023-04-08T13:17:50;8.13;;;7.33;;
37777;SDS011;23615;51.506;7.678;2023-04-08T13:20:15;8.10;;;7.30;;
37777;SDS011;23615;51.506;7.678;2023-04-08T13:22:41;10.63;;;9.53;;
37777;SDS011;23615;51.506;7.678;2023-04-08T13:25:06;9.73;;;8.73;;
37777;SDS011;23615;51.506;7.678;2023-04-08T13:27:32;9.85;;;8.85;;
37777;SDS011;23615;51.506;7.678;2023-04-08T13:29:58;10.27;;;9.27;;
37777;SDS011;23615;51.506;7.678;2023-04-08T13:32:23;9.50;;;8.60;;
37777;SDS011;23615;51.506;7.678;2023-04-08T13:34:49;11.53;;;10.33;;
37777;SDS011;23615;51.506;7.678;2023-04-08T13:37:14;10.67;;;9.67;;
37777;SDS011;23615;51.506;7.678;2023-04-08T13:39:39;11.37;;;9.87;;
37777;SDS011;23615;51.506;7.678;2023-04-08T13:42:05;10.38;;;9.38;;
37777;SDS011;23615;51.506;7.678;2023-04-08T13:44:30;10.93;;;9.93;;
37777;SDS011;23615;51.506;7.678;2023-04-08T13:46:57;30.65;;;25.77;;
37777;SDS011;23615;51.506;7.678;2023-04-08T13:49:22;16.65;;;14.95;;
37777;SDS011;23615;51.506;7.678;2023-04-08T13:51:47;12.48;;;11.27;;
37777;SDS011;23615;51.506;7.678;2023-04-08T13:54:13;13.23;;;11.93;;
37777;SDS011;23615;51.506;7.678;2023-04-08T13:56:38;10.10;;;9.10;;
37777;SDS011;23615;51.506;7.678;2023-04-08T13:59:03;13.13;;;11.73;;
37777;SDS011;23615;51.506;7.678;2023-04-08T14:01:29;13.57;;;12.17;;
37777;SDS011;23615;51.506;7.678;2023-04-08T14:03:54;12.13;;;10.97;;
37777;SDS011;23615;51.506;7.678;2023-04-08T14:06:19;13.15;;;11.85;;
37777;SDS011;23615;51.506;7.678;2023-04-08T14:08:44;12.37;;;11.13;;
37777;SDS011;23615;51.506;7.678;2023-04-08T14:11:10;14.17;;;12.03;;
37777;SDS011;23615;51.506;7.678;2023-04-08T14:13:35;13.30;;;12.00;;
37777;SDS011;23615;51.506;7.678;2023-04-08T14:16:00;12.90;;;11.60;;
37777;SDS011;23615;51.506;7.678;2023-04-08T14:18:26;13.90;;;12.50;;
37777;SDS011;23615;51.506;7.678;2023-04-08T14:20:52;15.00;;;13.40;;
37777;SDS011;23615;51.506;7.678;2023-04-08T14:23:18;14.13;;;12.73;;
37777;SDS011;23615;51.506;7.678;2023-04-08T14:25:43;11.23;;;10.13;;
37777;SDS011;23615;51.506;7.678;2023-04-08T14:28:08;13.90;;;12.50;;
37777;SDS011;23615;51.506;7.678;2023-04-08T14:30:34;12.80;;;11.53;;
37777;SDS011;23615;51.506;7.678;2023-04-08T14:32:59;11.80;;;10.55;;
37777;SDS011;23615;51.506;7.678;2023-04-08T14:35:25;12.20;;;11.00;;
37777;SDS011;23615;51.506;7.678;2023-04-08T14:37:51;12.13;;;10.93;;
37777;SDS011;23615;51.506;7.678;2023-04-08T14:40:16;12.53;;;11.07;;
37777;SDS011;23615;51.506;7.678;2023-04-08T14:42:41;11.50;;;10.30;;